createdAt,value
2022-08-26T00:01:53.695Z,9.35
2022-08-26T00:04:22.211Z,10.35
2022-08-26T00:06:51.516Z,8.50
2022-08-26T00:09:19.370Z,7.43
2022-08-26T00:11:47.391Z,9.20
2022-08-26T00:14:16.553Z,8.05
2022-08-26T00:16:49.000Z,12.27
2022-08-26T00:19:18.258Z,12.48
2022-08-26T00:21:46.357Z,9.25
2022-08-26T00:24:17.907Z,15.65
2022-08-26T00:26:45.936Z,11.50
2022-08-26T00:29:14.003Z,11.38
2022-08-26T00:31:45.140Z,8.63
2022-08-26T00:34:14.142Z,10.93
2022-08-26T00:36:43.158Z,8.85
2022-08-26T00:41:41.691Z,14.05
2022-08-26T00:44:10.386Z,8.75
2022-08-26T00:46:46.622Z,11.00
2022-08-26T00:49:18.301Z,13.88
2022-08-26T00:51:50.710Z,11.15
2022-08-26T00:54:21.526Z,8.15
2022-08-26T00:56:55.646Z,8.77
2022-08-26T00:59:24.876Z,11.73
2022-08-26T01:01:53.287Z,11.88
2022-08-26T01:04:23.619Z,12.82
2022-08-26T01:06:55.081Z,9.13
2022-08-26T01:09:23.819Z,13.70
2022-08-26T01:11:58.097Z,14.55
2022-08-26T01:14:29.913Z,13.45
2022-08-26T01:16:57.720Z,11.60
2022-08-26T01:19:32.731Z,11.40
2022-08-26T01:22:02.942Z,14.23
2022-08-26T01:24:32.664Z,10.13
2022-08-26T01:27:05.076Z,12.23
2022-08-26T01:29:35.478Z,10.75
2022-08-26T01:32:05.278Z,11.18
2022-08-26T01:34:36.127Z,9.82
2022-08-26T01:37:07.416Z,11.63
2022-08-26T01:39:37.985Z,10.55
2022-08-26T01:42:11.537Z,12.15
2022-08-26T01:44:44.940Z,15.77
2022-08-26T01:47:16.052Z,11.15
2022-08-26T01:49:49.363Z,14.30
2022-08-26T01:52:27.611Z,11.45
2022-08-26T01:55:00.597Z,13.43
2022-08-26T01:57:29.499Z,12.60
2022-08-26T02:00:00.513Z,15.55
2022-08-26T02:02:28.921Z,11.77
2022-08-26T02:05:00.944Z,13.07
2022-08-26T02:07:29.743Z,12.13
2022-08-26T02:09:58.954Z,11.77
2022-08-26T02:12:28.362Z,11.52
2022-08-26T02:14:59.575Z,12.32
2022-08-26T02:17:38.284Z,13.02
2022-08-26T02:20:13.106Z,12.68
2022-08-26T02:22:45.096Z,14.07
2022-08-26T02:25:21.525Z,17.98
2022-08-26T02:27:51.044Z,14.97
2022-08-26T02:30:21.854Z,14.60
2022-08-26T02:32:51.756Z,18.10
2022-08-26T02:35:21.463Z,17.80
2022-08-26T02:37:49.628Z,18.08
2022-08-26T02:40:21.448Z,20.25
2022-08-26T02:42:49.867Z,20.95
2022-08-26T02:45:23.121Z,26.33
2022-08-26T02:47:51.817Z,21.67
2022-08-26T02:50:20.991Z,23.80
2022-08-26T02:52:49.333Z,23.92
2022-08-26T02:55:19.550Z,25.55
2022-08-26T02:57:47.270Z,27.52
2022-08-26T03:02:43.893Z,32.95
2022-08-26T03:07:40.311Z,37.78
2022-08-26T03:10:09.217Z,36.30
2022-08-26T03:12:38.326Z,44.80
2022-08-26T03:15:16.487Z,37.50
2022-08-26T03:17:47.407Z,38.40
2022-08-26T03:20:15.759Z,40.00
2022-08-26T03:22:45.298Z,40.42
2022-08-26T03:27:44.499Z,45.53
2022-08-26T03:30:30.874Z,48.08
2022-08-26T03:32:58.807Z,45.05
2022-08-26T03:35:27.025Z,43.97
2022-08-26T03:37:55.439Z,47.85
2022-08-26T03:40:23.863Z,46.75
2022-08-26T03:42:58.561Z,52.53
2022-08-26T03:45:28.095Z,50.30
2022-08-26T03:47:56.011Z,51.42
2022-08-26T03:50:27.093Z,56.17
2022-08-26T03:52:56.006Z,56.30
2022-08-26T03:55:26.961Z,61.03
2022-08-26T03:57:55.401Z,58.90
2022-08-26T04:00:24.934Z,60.65
2022-08-26T04:02:53.721Z,60.60
2022-08-26T04:05:23.420Z,60.88
2022-08-26T04:07:51.267Z,68.28
2022-08-26T04:12:56.617Z,70.88
2022-08-26T04:15:29.065Z,66.40
2022-08-26T04:17:57.493Z,70.60
2022-08-26T04:20:25.725Z,78.10
2022-08-26T04:22:53.833Z,72.15
2022-08-26T04:25:22.445Z,69.85
2022-08-26T04:27:51.967Z,72.50
2022-08-26T04:30:20.079Z,73.45
2022-08-26T04:32:50.444Z,70.03
2022-08-26T04:35:20.866Z,72.03
2022-08-26T04:37:53.334Z,72.03
2022-08-26T04:40:21.570Z,74.60
2022-08-26T04:42:50.344Z,73.80
2022-08-26T04:45:18.853Z,71.93
2022-08-26T04:47:56.313Z,70.72
2022-08-26T04:50:25.812Z,69.40
2022-08-26T04:52:55.302Z,74.15
2022-08-26T04:55:37.335Z,70.85
2022-08-26T04:58:10.245Z,72.72
2022-08-26T05:00:39.203Z,73.00
2022-08-26T05:03:10.253Z,73.18
2022-08-26T05:05:40.152Z,72.53
2022-08-26T05:08:08.337Z,67.55
2022-08-26T05:10:40.942Z,75.40
2022-08-26T05:13:11.188Z,69.15
2022-08-26T05:15:40.550Z,65.78
2022-08-26T05:18:10.478Z,65.18
2022-08-26T05:20:41.586Z,64.22
2022-08-26T05:23:09.978Z,67.47
2022-08-26T05:25:40.415Z,65.82
2022-08-26T05:28:08.320Z,68.38
2022-08-26T05:30:36.831Z,64.68
2022-08-26T05:33:15.043Z,63.67
2022-08-26T05:35:43.359Z,64.13
2022-08-26T05:39:10.809Z,60.58
2022-08-26T05:41:42.084Z,57.10
2022-08-26T05:44:20.998Z,61.22
2022-08-26T05:46:51.232Z,65.88
2022-08-26T05:49:51.864Z,67.18
2022-08-26T05:52:21.415Z,57.10
2022-08-26T05:54:53.471Z,60.78
2022-08-26T05:57:21.097Z,64.63
2022-08-26T05:59:51.145Z,54.90
2022-08-26T06:02:18.859Z,55.80
2022-08-26T06:04:47.390Z,54.28
2022-08-26T06:07:16.895Z,48.83
2022-08-26T06:09:47.514Z,55.33
2022-08-26T06:12:15.805Z,49.30
2022-08-26T06:14:46.353Z,47.92
2022-08-26T06:17:16.659Z,60.20
2022-08-26T06:19:45.464Z,47.13
2022-08-26T06:22:27.164Z,43.47
2022-08-26T06:25:13.577Z,54.60
2022-08-26T06:27:41.390Z,54.17
